sensor_id;sensor_type;location;lat;lon;timestamp;temperature;humidity
8067;DHT22;4076;48.076;9.118;2023-03-12T00:00:39;-0.50;99.90
8067;DHT22;4076;48.076;9.118;2023-03-12T00:03:05;-0.50;99.90
8067;DHT22;4076;48.076;9.118;2023-03-12T00:05:31;-0.40;99.90
8067;DHT22;4076;48.076;9.118;2023-03-12T00:07:57;-0.40;99.90
8067;DHT22;4076;48.076;9.118;2023-03-12T00:10:25;-0.40;99.90
8067;DHT22;4076;48.076;9.118;2023-03-12T00:12:51;-0.30;99.90
8067;DHT22;4076;48.076;9.118;2023-03-12T00:15:16;-0.20;99.90
8067;DHT22;4076;48.076;9.118;2023-03-12T00:17:42;-0.20;99.90
8067;DHT22;4076;48.076;9.118;2023-03-12T00:20:08;-0.10;99.90
8067;DHT22;4076;48.076;9.118;2023-03-12T00:22:34;-0.10;99.90
8067;DHT22;4076;48.076;9.118;2023-03-12T00:25:00;-0.10;99.90
8067;DHT22;4076;48.076;9.118;2023-03-12T00:27:26;-0.20;99.90
8067;DHT22;4076;48.076;9.118;2023-03-12T00:29:52;-0.20;99.90
8067;DHT22;4076;48.076;9.118;2023-03-12T00:32:18;-0.20;99.90
8067;DHT22;4076;48.076;9.118;2023-03-12T00:34:48;-0.30;99.90
8067;DHT22;4076;48.076;9.118;2023-03-12T00:37:14;-0.20;99.90
8067;DHT22;4076;48.076;9.118;2023-03-12T00:39:39;-0.20;99.90
8067;DHT22;4076;48.076;9.118;2023-03-12T00:42:05;-0.30;99.90
8067;DHT22;4076;48.076;9.118;2023-03-12T00:44:31;-0.30;99.90
8067;DHT22;4076;48.076;9.118;2023-03-12T00:46:56;-0.20;99.90
8067;DHT22;4076;48.076;9.118;2023-03-12T00:49:22;-0.20;99.90
8067;DHT22;4076;48.076;9.118;2023-03-12T00:51:47;-0.20;99.90
8067;DHT22;4076;48.076;9.118;2023-03-12T00:54:13;-0.20;99.90
8067;DHT22;4076;48.076;9.118;2023-03-12T00:56:38;-0.10;99.90
8067;DHT22;4076;48.076;9.118;2023-03-12T00:59:04;-0.20;99.90
8067;DHT22;4076;48.076;9.118;2023-03-12T01:01:29;-0.20;99.90
8067;DHT22;4076;48.076;9.118;2023-03-12T01:03:55;-0.20;99.90
8067;DHT22;4076;48.076;9.118;2023-03-12T01:06:22;-0.10;99.90
8067;DHT22;4076;48.076;9.118;2023-03-12T01:08:48;0.00;99.90
8067;DHT22;4076;48.076;9.118;2023-03-12T01:11:18;0.10;99.90
8067;DHT22;4076;48.076;9.118;2023-03-12T01:13:45;0.10;99.90
8067;DHT22;4076;48.076;9.118;2023-03-12T01:16:11;0.00;99.90
8067;DHT22;4076;48.076;9.118;2023-03-12T01:18:37;0.10;99.90
8067;DHT22;4076;48.076;9.118;2023-03-12T01:21:03;0.00;99.90
8067;DHT22;4076;48.076;9.118;2023-03-12T01:23:28;0.00;99.90
8067;DHT22;4076;48.076;9.118;2023-03-12T01:25:54;0.10;99.90
8067;DHT22;4076;48.076;9.118;2023-03-12T01:28:21;0.10;99.90
8067;DHT22;4076;48.076;9.118;2023-03-12T01:30:47;0.10;99.90
8067;DHT22;4076;48.076;9.118;2023-03-12T01:33:12;0.00;99.90
8067;DHT22;4076;48.076;9.118;2023-03-12T01:35:39;0.00;99.90
8067;DHT22;4076;48.076;9.118;2023-03-12T01:38:12;0.00;99.90
8067;DHT22;4076;48.076;9.118;2023-03-12T01:40:38;0.10;99.90
8067;DHT22;4076;48.076;9.118;2023-03-12T01:43:32;0.20;99.90
8067;DHT22;4076;48.076;9.118;2023-03-12T01:48:35;0.40;99.90
8067;DHT22;4076;48.076;9.118;2023-03-12T01:51:02;0.40;99.90
8067;DHT22;4076;48.076;9.118;2023-03-12T01:53:28;0.40;99.90
8067;DHT22;4076;48.076;9.118;2023-03-12T01:55:56;0.40;99.90
8067;DHT22;4076;48.076;9.118;2023-03-12T01:58:22;0.40;99.90
8067;DHT22;4076;48.076;9.118;2023-03-12T02:00:48;0.40;99.90
8067;DHT22;4076;48.076;9.118;2023-03-12T02:03:14;0.40;99.90
8067;DHT22;4076;48.076;9.118;2023-03-12T02:05:55;0.40;99.90
8067;DHT22;4076;48.076;9.118;2023-03-12T02:08:22;0.50;99.90
8067;DHT22;4076;48.076;9.118;2023-03-12T02:10:48;0.50;99.90
8067;DHT22;4076;48.076;9.118;2023-03-12T02:13:14;0.60;99.90
8067;DHT22;4076;48.076;9.118;2023-03-12T02:15:40;0.70;99.90
8067;DHT22;4076;48.076;9.118;2023-03-12T02:18:12;0.60;99.90
8067;DHT22;4076;48.076;9.118;2023-03-12T02:21:00;0.70;99.90
8067;DHT22;4076;48.076;9.118;2023-03-12T02:26:23;0.70;99.90
8067;DHT22;4076;48.076;9.118;2023-03-12T02:28:50;0.60;99.90
8067;DHT22;4076;48.076;9.118;2023-03-12T02:31:19;0.60;99.90
8067;DHT22;4076;48.076;9.118;2023-03-12T02:33:45;0.70;99.90
8067;DHT22;4076;48.076;9.118;2023-03-12T02:36:11;0.80;99.90
8067;DHT22;4076;48.076;9.118;2023-03-12T02:43:39;0.70;99.90
8067;DHT22;4076;48.076;9.118;2023-03-12T02:46:06;0.80;99.90
8067;DHT22;4076;48.076;9.118;2023-03-12T02:48:32;0.80;99.90
8067;DHT22;4076;48.076;9.118;2023-03-12T02:50:58;0.80;99.90
8067;DHT22;4076;48.076;9.118;2023-03-12T02:53:24;0.80;99.90
8067;DHT22;4076;48.076;9.118;2023-03-12T02:55:49;0.90;99.90
8067;DHT22;4076;48.076;9.118;2023-03-12T02:58:15;0.90;99.90
8067;DHT22;4076;48.076;9.118;2023-03-12T03:00:40;0.90;99.90
8067;DHT22;4076;48.076;9.118;2023-03-12T03:03:06;0.90;99.90
8067;DHT22;4076;48.076;9.118;2023-03-12T03:05:32;0.80;99.90
8067;DHT22;4076;48.076;9.118;2023-03-12T03:07:57;0.80;99.90
8067;DHT22;4076;48.076;9.118;2023-03-12T03:10:23;0.70;99.90
8067;DHT22;4076;48.076;9.118;2023-03-12T03:12:48;0.70;99.90
8067;DHT22;4076;48.076;9.118;2023-03-12T03:15:15;0.70;99.90
8067;DHT22;4076;48.076;9.118;2023-03-12T03:17:41;0.80;99.90
8067;DHT22;4076;48.076;9.118;2023-03-12T03:20:07;0.80;99.90
8067;DHT22;4076;48.076;9.118;2023-03-12T03:22:36;0.70;99.90
8067;DHT22;4076;48.076;9.118;2023-03-12T03:25:02;0.70;99.90
8067;DHT22;4076;48.076;9.118;2023-03-12T03:27:27;0.70;99.90
8067;DHT22;4076;48.076;9.118;2023-03-12T03:29:53;0.80;99.90
8067;DHT22;4076;48.076;9.118;2023-03-12T03:32:18;0.90;99.90
8067;DHT22;4076;48.076;9.118;2023-03-12T03:34:44;1.00;99.90
8067;DHT22;4076;48.076;9.118;2023-03-12T03:37:10;0.90;99.90
8067;DHT22;4076;48.076;9.118;2023-03-12T03:39:36;0.90;99.90
8067;DHT22;4076;48.076;9.118;2023-03-12T03:42:01;0.90;99.90
8067;DHT22;4076;48.076;9.118;2023-03-12T03:44:27;0.90;99.90
8067;DHT22;4076;48.076;9.118;2023-03-12T03:46:52;0.90;99.90
8067;DHT22;4076;48.076;9.118;2023-03-12T03:49:19;0.90;99.90
8067;DHT22;4076;48.076;9.118;2023-03-12T03:51:45;0.90;99.90
8067;DHT22;4076;48.076;9.118;2023-03-12T03:54:11;0.90;99.90
8067;DHT22;4076;48.076;9.118;2023-03-12T03:56:37;1.00;99.90
8067;DHT22;4076;48.076;9.118;2023-03-12T03:59:04;1.00;99.90
8067;DHT22;4076;48.076;9.118;2023-03-12T04:01:29;0.90;99.90
8067;DHT22;4076;48.076;9.118;2023-03-12T04:03:56;0.90;99.90
8067;DHT22;4076;48.076;9.118;2023-03-12T04:06:21;0.80;99.90
8067;DHT22;4076;48.076;9.118;2023-03-12T04:08:47;0.80;99.90
8067;DHT22;4076;48.076;9.118;2023-03-12T04:11:15;0.70;99.90
8067;DHT22;4076;48.076;9.118;2023-03-12T04:13:41;0.70;99.90
8067;DHT22;4076;48.076;9.118;2023-03-12T04:16:07;0.70;99.90
8067;DHT22;4076;48.076;9.118;2023-03-12T04:18:33;0.80;99.90
8067;DHT22;4076;48.076;9.118;2023-03-12T04:21:00;0.90;99.90
8067;DHT22;4076;48.076;9.118;2023-03-12T04:23:26;0.90;99.90
8067;DHT22;4076;48.076;9.118;2023-03-12T04:25:52;1.00;99.90
8067;DHT22;4076;48.076;9.118;2023-03-12T04:28:17;1.00;99.90
8067;DHT22;4076;48.076;9.118;2023-03-12T04:30:43;1.00;99.90
8067;DHT22;4076;48.076;9.118;2023-03-12T04:33:08;1.10;99.90
8067;DHT22;4076;48.076;9.118;2023-03-12T04:35:34;1.10;99.90
8067;DHT22;4076;48.076;9.118;2023-03-12T04:38:00;1.10;99.90
8067;DHT22;4076;48.076;9.118;2023-03-12T04:40:26;1.10;99.90
8067;DHT22;4076;48.076;9.118;2023-03-12T04:42:52;1.10;99.90
8067;DHT22;4076;48.076;9.118;2023-03-12T04:45:17;1.00;99.90
8067;DHT22;4076;48.076;9.118;2023-03-12T04:47:43;1.00;99.90
8067;DHT22;4076;48.076;9.118;2023-03-12T04:50:09;1.10;99.90
8067;DHT22;4076;48.076;9.118;2023-03-12T04:52:35;1.10;99.90
8067;DHT22;4076;48.076;9.118;2023-03-12T04:55:01;1.20;99.90
8067;DHT22;4076;48.076;9.118;2023-03-12T04:57:27;1.20;99.90
8067;DHT22;4076;48.076;9.118;2023-03-12T04:59:52;1.20;99.90
8067;DHT22;4076;48.076;9.118;2023-03-12T05:02:18;1.30;99.90
8067;DHT22;4076;48.076;9.118;2023-03-12T05:04:43;1.30;99.90
8067;DHT22;4076;48.076;9.118;2023-03-12T05:07:09;1.40;99.90
8067;DHT22;4076;48.076;9.118;2023-03-12T05:09:34;1.30;99.90
8067;DHT22;4076;48.076;9.118;2023-03-12T05:12:00;1.30;99.90
8067;DHT22;4076;48.076;9.118;2023-03-12T05:14:26;1.30;99.90
8067;DHT22;4076;48.076;9.118;2023-03-12T05:16:51;1.30;99.90
8067;DHT22;4076;48.076;9.118;2023-03-12T05:19:17;1.30;99.90
8067;DHT22;4076;48.076;9.118;2023-03-12T05:21:42;1.40;99.90
8067;DHT22;4076;48.076;9.118;2023-03-12T05:24:09;1.40;99.90
8067;DHT22;4076;48.076;9.118;2023-03-12T05:26:35;1.50;99.90
8067;DHT22;4076;48.076;9.118;2023-03-12T05:29:03;1.50;99.90
8067;DHT22;4076;48.076;9.118;2023-03-12T05:31:30;1.60;99.90
8067;DHT22;4076;48.076;9.118;2023-03-12T05:34:00;1.60;99.90
8067;DHT22;4076;48.076;9.118;2023-03-12T05:36:26;1.60;99.90
8067;DHT22;4076;48.076;9.118;2023-03-12T05:38:52;1.60;99.90
8067;DHT22;4076;48.076;9.118;2023-03-12T05:41:23;1.70;99.90
8067;DHT22;4076;48.076;9.118;2023-03-12T05:43:51;1.70;99.90
8067;DHT22;4076;48.076;9.118;2023-03-12T05:46:17;1.60;99.90
8067;DHT22;4076;48.076;9.118;2023-03-12T05:48:42;1.60;99.90
8067;DHT22;4076;48.076;9.118;2023-03-12T05:51:08;1.60;99.90
8067;DHT22;4076;48.076;9.118;2023-03-12T05:53:33;1.60;99.90
8067;DHT22;4076;48.076;9.118;2023-03-12T05:56:08;1.50;99.90
8067;DHT22;4076;48.076;9.118;2023-03-12T05:58:35;1.50;99.90
8067;DHT22;4076;48.076;9.118;2023-03-12T06:01:09;1.50;99.90
8067;DHT22;4076;48.076;9.118;2023-03-12T06:03:35;1.50;99.90
8067;DHT22;4076;48.076;9.118;2023-03-12T06:06:01;1.50;99.90
8067;DHT22;4076;48.076;9.118;2023-03-12T06:08:26;1.50;99.90
8067;DHT22;4076;48.076;9.118;2023-03-12T06:10:52;1.60;99.90
8067;DHT22;4076;48.076;9.118;2023-03-12T06:13:21;1.70;99.90
8067;DHT22;4076;48.076;9.118;2023-03-12T06:15:47;1.80;99.90
8067;DHT22;4076;48.076;9.118;2023-03-12T06:18:13;1.80;99.90
8067;DHT22;4076;48.076;9.118;2023-03-12T06:20:39;1.80;99.90
8067;DHT22;4076;48.076;9.118;2023-03-12T06:23:04;1.90;99.90
8067;DHT22;4076;48.076;9.118;2023-03-12T06:25:30;1.90;99.90
8067;DHT22;4076;48.076;9.118;2023-03-12T06:27:56;1.90;99.90
8067;DHT22;4076;48.076;9.118;2023-03-12T06:30:21;1.80;99.90
8067;DHT22;4076;48.076;9.118;2023-03-12T06:32:47;1.80;99.90
8067;DHT22;4076;48.076;9.118;2023-03-12T06:35:12;1.80;99.90
8067;DHT22;4076;48.076;9.118;2023-03-12T06:37:38;1.90;99.90
8067;DHT22;4076;48.076;9.118;2023-03-12T06:40:04;1.90;99.90
8067;DHT22;4076;48.076;9.118;2023-03-12T06:42:32;1.90;99.90
8067;DHT22;4076;48.076;9.118;2023-03-12T06:44:57;1.90;99.90
8067;DHT22;4076;48.076;9.118;2023-03-12T06:47:23;2.00;99.90
8067;DHT22;4076;48.076;9.118;2023-03-12T06:49:48;2.00;99.90
8067;DHT22;4076;48.076;9.118;2023-03-12T06:52:14;2.10;99.90
8067;DHT22;4076;48.076;9.118;2023-03-12T06:54:39;2.20;99.90
8067;DHT22;4076;48.076;9.118;2023-03-12T06:57:05;2.20;99.90
8067;DHT22;4076;48.076;9.118;2023-03-12T06:59:31;2.30;99.90
8067;DHT22;4076;48.076;9.118;2023-03-12T07:01:56;2.40;99.90
8067;DHT22;4076;48.076;9.118;2023-03-12T07:04:22;2.50;99.90
8067;DHT22;4076;48.076;9.118;2023-03-12T07:06:47;2.60;99.90
8067;DHT22;4076;48.076;9.118;2023-03-12T07:09:16;2.60;99.90
8067;DHT22;4076;48.076;9.118;2023-03-12T07:11:42;2.70;99.90
8067;DHT22;4076;48.076;9.118;2023-03-12T07:14:08;2.80;99.90
8067;DHT22;4076;48.076;9.118;2023-03-12T07:16:33;2.90;99.90
8067;DHT22;4076;48.076;9.118;2023-03-12T07:18:59;3.10;99.90
8067;DHT22;4076;48.076;9.118;2023-03-12T07:21:25;3.20;99.90
8067;DHT22;4076;48.076;9.118;2023-03-12T07:23:51;3.30;99.90
8067;DHT22;4076;48.076;9.118;2023-03-12T07:26:17;3.50;99.90
8067;DHT22;4076;48.076;9.118;2023-03-12T07:28:43;3.90;99.90
8067;DHT22;4076;48.076;9.118;2023-03-12T07:31:09;4.10;99.90
8067;DHT22;4076;48.076;9.118;2023-03-12T07:33:34;4.20;99.90
8067;DHT22;4076;48.076;9.118;2023-03-12T07:36:00;4.40;99.90
8067;DHT22;4076;48.076;9.118;2023-03-12T07:38:27;4.60;99.90
8067;DHT22;4076;48.076;9.118;2023-03-12T07:40:53;4.70;99.90
8067;DHT22;4076;48.076;9.118;2023-03-12T07:43:19;4.90;99.90
8067;DHT22;4076;48.076;9.118;2023-03-12T07:45:45;5.20;99.90
8067;DHT22;4076;48.076;9.118;2023-03-12T07:48:11;5.60;99.90
8067;DHT22;4076;48.076;9.118;2023-03-12T07:50:36;5.80;99.90
8067;DHT22;4076;48.076;9.118;2023-03-12T07:53:03;6.00;99.90
8067;DHT22;4076;48.076;9.118;2023-03-12T07:55:29;6.20;99.90
8067;DHT22;4076;48.076;9.118;2023-03-12T07:57:55;6.50;99.90
8067;DHT22;4076;48.076;9.118;2023-03-12T08:00:23;7.00;99.90
8067;DHT22;4076;48.076;9.118;2023-03-12T08:02:48;7.50;99.90
8067;DHT22;4076;48.076;9.118;2023-03-12T08:05:14;8.70;99.90
8067;DHT22;4076;48.076;9.118;2023-03-12T08:07:40;10.40;99.90
8067;DHT22;4076;48.076;9.118;2023-03-12T08:10:07;12.30;92.60
8067;DHT22;4076;48.076;9.118;2023-03-12T08:12:32;13.80;82.40
8067;DHT22;4076;48.076;9.118;2023-03-12T08:14:58;14.20;67.10
8067;DHT22;4076;48.076;9.118;2023-03-12T08:17:24;14.10;64.40
8067;DHT22;4076;48.076;9.118;2023-03-12T08:19:50;13.70;61.80
8067;DHT22;4076;48.076;9.118;2023-03-12T08:22:15;13.00;62.80
8067;DHT22;4076;48.076;9.118;2023-03-12T08:24:42;12.30;65.30
8067;DHT22;4076;48.076;9.118;2023-03-12T08:27:07;11.90;69.10
8067;DHT22;4076;48.076;9.118;2023-03-12T08:29:33;12.20;70.00
8067;DHT22;4076;48.076;9.118;2023-03-12T08:31:59;12.10;68.30
8067;DHT22;4076;48.076;9.118;2023-03-12T08:34:25;11.50;69.70
8067;DHT22;4076;48.076;9.118;2023-03-12T08:36:50;10.90;69.00
8067;DHT22;4076;48.076;9.118;2023-03-12T08:39:16;10.40;70.00
8067;DHT22;4076;48.076;9.118;2023-03-12T08:41:41;9.90;77.10
8067;DHT22;4076;48.076;9.118;2023-03-12T08:44:07;9.50;77.30
8067;DHT22;4076;48.076;9.118;2023-03-12T08:46:32;9.20;78.80
8067;DHT22;4076;48.076;9.118;2023-03-12T08:48:59;9.00;81.70
8067;DHT22;4076;48.076;9.118;2023-03-12T08:51:24;9.30;87.50
8067;DHT22;4076;48.076;9.118;2023-03-12T08:53:50;9.70;91.80
8067;DHT22;4076;48.076;9.118;2023-03-12T08:56:16;10.00;92.00
8067;DHT22;4076;48.076;9.118;2023-03-12T08:58:42;10.10;92.00
8067;DHT22;4076;48.076;9.118;2023-03-12T09:01:11;10.00;92.10
8067;DHT22;4076;48.076;9.118;2023-03-12T09:03:36;10.00;93.40
8067;DHT22;4076;48.076;9.118;2023-03-12T09:06:08;10.10;93.50
8067;DHT22;4076;48.076;9.118;2023-03-12T09:08:38;10.30;93.60
8067;DHT22;4076;48.076;9.118;2023-03-12T09:11:04;10.70;95.60
8067;DHT22;4076;48.076;9.118;2023-03-12T09:13:29;10.90;93.00
8067;DHT22;4076;48.076;9.118;2023-03-12T09:16:00;11.00;93.30
8067;DHT22;4076;48.076;9.118;2023-03-12T09:18:27;11.10;93.10
8067;DHT22;4076;48.076;9.118;2023-03-12T09:20:53;11.10;92.50
8067;DHT22;4076;48.076;9.118;2023-03-12T09:23:18;10.90;92.40
8067;DHT22;4076;48.076;9.118;2023-03-12T09:25:45;10.70;93.40
8067;DHT22;4076;48.076;9.118;2023-03-12T09:28:11;10.60;92.70
8067;DHT22;4076;48.076;9.118;2023-03-12T09:30:36;10.40;93.30
8067;DHT22;4076;48.076;9.118;2023-03-12T09:33:02;10.50;94.70
8067;DHT22;4076;48.076;9.118;2023-03-12T09:35:27;10.80;95.60
8067;DHT22;4076;48.076;9.118;2023-03-12T09:37:53;11.30;97.00
8067;DHT22;4076;48.076;9.118;2023-03-12T09:40:21;11.60;95.00
8067;DHT22;4076;48.076;9.118;2023-03-12T09:42:58;12.10;94.60
8067;DHT22;4076;48.076;9.118;2023-03-12T09:45:27;13.00;93.30
8067;DHT22;4076;48.076;9.118;2023-03-12T09:48:03;15.00;95.80
8067;DHT22;4076;48.076;9.118;2023-03-12T09:50:37;17.60;90.80
8067;DHT22;4076;48.076;9.118;2023-03-12T09:53:30;19.70;75.90
8067;DHT22;4076;48.076;9.118;2023-03-12T09:55:58;21.00;63.60
8067;DHT22;4076;48.076;9.118;2023-03-12T10:00:59;20.90;50.60
8067;DHT22;4076;48.076;9.118;2023-03-12T10:06:25;18.10;49.70
8067;DHT22;4076;48.076;9.118;2023-03-12T10:09:28;16.60;50.80
8067;DHT22;4076;48.076;9.118;2023-03-12T10:12:23;15.30;52.40
8067;DHT22;4076;48.076;9.118;2023-03-12T10:20:45;13.80;56.80
8067;DHT22;4076;48.076;9.118;2023-03-12T10:28:30;13.30;58.30
8067;DHT22;4076;48.076;9.118;2023-03-12T10:31:02;13.10;60.20
8067;DHT22;4076;48.076;9.118;2023-03-12T10:33:43;13.10;61.20
8067;DHT22;4076;48.076;9.118;2023-03-12T10:36:17;13.40;61.90
8067;DHT22;4076;48.076;9.118;2023-03-12T10:38:44;13.70;62.50
8067;DHT22;4076;48.076;9.118;2023-03-12T10:41:20;13.50;62.00
8067;DHT22;4076;48.076;9.118;2023-03-12T10:43:46;13.10;64.10
8067;DHT22;4076;48.076;9.118;2023-03-12T10:46:49;12.80;64.00
8067;DHT22;4076;48.076;9.118;2023-03-12T10:51:56;11.90;66.90
8067;DHT22;4076;48.076;9.118;2023-03-12T10:54:28;11.60;68.10
8067;DHT22;4076;48.076;9.118;2023-03-12T10:56:54;11.40;69.20
8067;DHT22;4076;48.076;9.118;2023-03-12T10:59:21;11.10;71.70
8067;DHT22;4076;48.076;9.118;2023-03-12T11:01:49;10.90;72.30
8067;DHT22;4076;48.076;9.118;2023-03-12T11:04:24;11.00;75.50
8067;DHT22;4076;48.076;9.118;2023-03-12T11:09:38;11.60;79.70
8067;DHT22;4076;48.076;9.118;2023-03-12T11:12:26;11.70;80.40
8067;DHT22;4076;48.076;9.118;2023-03-12T11:14:52;11.80;81.40
8067;DHT22;4076;48.076;9.118;2023-03-12T11:17:24;11.70;82.20
8067;DHT22;4076;48.076;9.118;2023-03-12T11:19:50;11.60;83.30
8067;DHT22;4076;48.076;9.118;2023-03-12T11:22:27;11.60;84.20
8067;DHT22;4076;48.076;9.118;2023-03-12T11:24:59;11.50;84.40
8067;DHT22;4076;48.076;9.118;2023-03-12T11:27:34;11.20;88.50
8067;DHT22;4076;48.076;9.118;2023-03-12T11:30:04;11.10;93.10
8067;DHT22;4076;48.076;9.118;2023-03-12T11:32:34;11.30;95.30
8067;DHT22;4076;48.076;9.118;2023-03-12T11:35:00;11.40;98.60
8067;DHT22;4076;48.076;9.118;2023-03-12T11:37:41;11.60;98.00
8067;DHT22;4076;48.076;9.118;2023-03-12T11:57:30;12.70;95.00
8067;DHT22;4076;48.076;9.118;2023-03-12T12:00:13;12.90;97.20
8067;DHT22;4076;48.076;9.118;2023-03-12T12:05:24;13.30;96.70
8067;DHT22;4076;48.076;9.118;2023-03-12T12:10:59;13.60;91.30
8067;DHT22;4076;48.076;9.118;2023-03-12T12:16:21;13.60;90.90
8067;DHT22;4076;48.076;9.118;2023-03-12T12:19:16;13.60;88.80
8067;DHT22;4076;48.076;9.118;2023-03-12T12:27:28;13.90;82.50
8067;DHT22;4076;48.076;9.118;2023-03-12T12:30:21;14.10;79.00
8067;DHT22;4076;48.076;9.118;2023-03-12T12:35:42;13.80;67.70
8067;DHT22;4076;48.076;9.118;2023-03-12T12:41:00;13.70;68.50
8067;DHT22;4076;48.076;9.118;2023-03-12T12:43:31;13.70;63.30
8067;DHT22;4076;48.076;9.118;2023-03-12T12:46:07;13.50;61.60
8067;DHT22;4076;48.076;9.118;2023-03-12T12:48:43;13.40;62.50
8067;DHT22;4076;48.076;9.118;2023-03-12T12:51:11;13.20;62.00
8067;DHT22;4076;48.076;9.118;2023-03-12T13:01:51;12.90;59.90
8067;DHT22;4076;48.076;9.118;2023-03-12T13:04:28;12.90;60.90
8067;DHT22;4076;48.076;9.118;2023-03-12T13:09:46;13.30;61.10
8067;DHT22;4076;48.076;9.118;2023-03-12T13:14:47;13.80;59.60
8067;DHT22;4076;48.076;9.118;2023-03-12T13:17:23;13.80;58.20
8067;DHT22;4076;48.076;9.118;2023-03-12T13:19:53;13.70;56.80
8067;DHT22;4076;48.076;9.118;2023-03-12T13:22:51;13.60;57.80
8067;DHT22;4076;48.076;9.118;2023-03-12T13:25:45;13.50;57.70
8067;DHT22;4076;48.076;9.118;2023-03-12T13:36:44;13.60;58.20
8067;DHT22;4076;48.076;9.118;2023-03-12T13:44:27;13.50;57.50
8067;DHT22;4076;48.076;9.118;2023-03-12T13:47:16;13.50;57.80
8067;DHT22;4076;48.076;9.118;2023-03-12T13:52:40;13.40;57.30
8067;DHT22;4076;48.076;9.118;2023-03-12T13:57:38;13.40;57.00
8067;DHT22;4076;48.076;9.118;2023-03-12T14:00:14;13.40;56.80
8067;DHT22;4076;48.076;9.118;2023-03-12T14:03:10;13.40;56.60
8067;DHT22;4076;48.076;9.118;2023-03-12T14:16:43;13.00;56.60
8067;DHT22;4076;48.076;9.118;2023-03-12T14:19:18;13.00;56.90
8067;DHT22;4076;48.076;9.118;2023-03-12T14:21:47;12.90;57.00
8067;DHT22;4076;48.076;9.118;2023-03-12T14:24:46;12.80;57.20
8067;DHT22;4076;48.076;9.118;2023-03-12T14:27:20;12.80;56.90
8067;DHT22;4076;48.076;9.118;2023-03-12T14:29:54;12.80;57.20
8067;DHT22;4076;48.076;9.118;2023-03-12T14:32:23;12.90;56.90
8067;DHT22;4076;48.076;9.118;2023-03-12T14:35:05;13.00;57.40
8067;DHT22;4076;48.076;9.118;2023-03-12T14:37:39;12.90;57.10
8067;DHT22;4076;48.076;9.118;2023-03-12T14:43:01;12.80;56.80
8067;DHT22;4076;48.076;9.118;2023-03-12T14:45:27;12.70;56.90
8067;DHT22;4076;48.076;9.118;2023-03-12T14:47:57;12.60;59.30
8067;DHT22;4076;48.076;9.118;2023-03-12T14:50:38;12.40;61.00
8067;DHT22;4076;48.076;9.118;2023-03-12T14:53:25;12.30;63.60
8067;DHT22;4076;48.076;9.118;2023-03-12T14:56:12;12.20;64.30
8067;DHT22;4076;48.076;9.118;2023-03-12T14:58:44;12.20;66.50
8067;DHT22;4076;48.076;9.118;2023-03-12T15:01:20;12.20;67.80
8067;DHT22;4076;48.076;9.118;2023-03-12T15:03:50;12.10;68.00
8067;DHT22;4076;48.076;9.118;2023-03-12T15:06:29;12.20;68.10
8067;DHT22;4076;48.076;9.118;2023-03-12T15:08:56;12.20;70.90
8067;DHT22;4076;48.076;9.118;2023-03-12T15:11:24;12.30;71.50
8067;DHT22;4076;48.076;9.118;2023-03-12T15:13:53;12.30;70.90
8067;DHT22;4076;48.076;9.118;2023-03-12T15:16:20;12.40;67.30
8067;DHT22;4076;48.076;9.118;2023-03-12T15:18:46;12.30;64.00
8067;DHT22;4076;48.076;9.118;2023-03-12T15:21:13;12.20;62.70
8067;DHT22;4076;48.076;9.118;2023-03-12T15:23:41;12.10;63.30
8067;DHT22;4076;48.076;9.118;2023-03-12T15:29:00;12.20;61.80
8067;DHT22;4076;48.076;9.118;2023-03-12T15:31:27;12.30;62.30
8067;DHT22;4076;48.076;9.118;2023-03-12T15:34:05;12.50;62.10
8067;DHT22;4076;48.076;9.118;2023-03-12T15:36:32;12.40;60.40
8067;DHT22;4076;48.076;9.118;2023-03-12T15:39:11;12.30;60.00
8067;DHT22;4076;48.076;9.118;2023-03-12T15:41:44;12.20;60.40
8067;DHT22;4076;48.076;9.118;2023-03-12T15:44:20;12.20;60.10
8067;DHT22;4076;48.076;9.118;2023-03-12T15:46:55;12.20;59.90
8067;DHT22;4076;48.076;9.118;2023-03-12T15:49:27;12.10;59.40
8067;DHT22;4076;48.076;9.118;2023-03-12T15:52:25;12.00;59.60
8067;DHT22;4076;48.076;9.118;2023-03-12T16:00:51;11.80;59.80
8067;DHT22;4076;48.076;9.118;2023-03-12T16:03:18;11.80;60.00
8067;DHT22;4076;48.076;9.118;2023-03-12T16:05:45;11.70;60.40
8067;DHT22;4076;48.076;9.118;2023-03-12T16:08:18;11.70;60.20
8067;DHT22;4076;48.076;9.118;2023-03-12T16:10:46;11.60;60.00
8067;DHT22;4076;48.076;9.118;2023-03-12T16:13:15;11.50;60.40
8067;DHT22;4076;48.076;9.118;2023-03-12T16:15:41;11.30;60.70
8067;DHT22;4076;48.076;9.118;2023-03-12T16:18:14;11.30;61.10
8067;DHT22;4076;48.076;9.118;2023-03-12T16:20:40;11.20;61.90
8067;DHT22;4076;48.076;9.118;2023-03-12T16:23:06;11.20;61.70
8067;DHT22;4076;48.076;9.118;2023-03-12T16:25:32;11.10;61.20
8067;DHT22;4076;48.076;9.118;2023-03-12T16:28:01;11.10;61.90
8067;DHT22;4076;48.076;9.118;2023-03-12T16:30:28;11.10;61.20
8067;DHT22;4076;48.076;9.118;2023-03-12T16:32:55;11.00;63.00
8067;DHT22;4076;48.076;9.118;2023-03-12T16:35:20;10.90;63.00
8067;DHT22;4076;48.076;9.118;2023-03-12T16:37:46;10.90;63.30
8067;DHT22;4076;48.076;9.118;2023-03-12T16:40:13;10.80;63.90
8067;DHT22;4076;48.076;9.118;2023-03-12T16:42:42;10.70;63.70
8067;DHT22;4076;48.076;9.118;2023-03-12T16:45:12;10.70;64.10
8067;DHT22;4076;48.076;9.118;2023-03-12T16:47:39;10.60;65.00
8067;DHT22;4076;48.076;9.118;2023-03-12T16:50:13;10.60;64.60
8067;DHT22;4076;48.076;9.118;2023-03-12T16:52:38;10.50;64.90
8067;DHT22;4076;48.076;9.118;2023-03-12T16:55:04;10.40;65.70
8067;DHT22;4076;48.076;9.118;2023-03-12T16:57:36;10.30;65.90
8067;DHT22;4076;48.076;9.118;2023-03-12T17:00:04;10.30;67.10
8067;DHT22;4076;48.076;9.118;2023-03-12T17:02:33;10.20;66.90
8067;DHT22;4076;48.076;9.118;2023-03-12T17:04:59;10.20;67.40
8067;DHT22;4076;48.076;9.118;2023-03-12T17:07:25;10.10;67.70
8067;DHT22;4076;48.076;9.118;2023-03-12T17:09:50;10.10;68.30
8067;DHT22;4076;48.076;9.118;2023-03-12T17:12:37;10.10;68.50
8067;DHT22;4076;48.076;9.118;2023-03-12T17:15:21;10.00;69.90
8067;DHT22;4076;48.076;9.118;2023-03-12T17:17:48;9.90;70.90
8067;DHT22;4076;48.076;9.118;2023-03-12T17:20:16;9.70;71.40
8067;DHT22;4076;48.076;9.118;2023-03-12T17:22:42;9.70;72.40
8067;DHT22;4076;48.076;9.118;2023-03-12T17:27:44;9.50;71.70
8067;DHT22;4076;48.076;9.118;2023-03-12T17:30:10;9.40;72.70
8067;DHT22;4076;48.076;9.118;2023-03-12T17:32:35;9.40;73.40
8067;DHT22;4076;48.076;9.118;2023-03-12T17:35:01;9.30;74.40
8067;DHT22;4076;48.076;9.118;2023-03-12T17:37:31;9.20;74.20
8067;DHT22;4076;48.076;9.118;2023-03-12T17:39:57;9.20;75.20
8067;DHT22;4076;48.076;9.118;2023-03-12T17:42:22;9.10;75.80
8067;DHT22;4076;48.076;9.118;2023-03-12T17:44:48;9.00;76.60
8067;DHT22;4076;48.076;9.118;2023-03-12T17:47:13;8.80;77.50
8067;DHT22;4076;48.076;9.118;2023-03-12T17:49:39;8.80;77.70
8067;DHT22;4076;48.076;9.118;2023-03-12T17:52:04;8.70;79.00
8067;DHT22;4076;48.076;9.118;2023-03-12T17:54:30;8.60;79.50
8067;DHT22;4076;48.076;9.118;2023-03-12T17:56:55;8.50;80.90
8067;DHT22;4076;48.076;9.118;2023-03-12T17:59:21;8.40;82.10
8067;DHT22;4076;48.076;9.118;2023-03-12T18:01:46;8.30;80.50
8067;DHT22;4076;48.076;9.118;2023-03-12T18:04:12;8.20;82.60
8067;DHT22;4076;48.076;9.118;2023-03-12T18:06:37;8.10;83.30
8067;DHT22;4076;48.076;9.118;2023-03-12T18:09:03;8.00;84.00
8067;DHT22;4076;48.076;9.118;2023-03-12T18:11:28;7.90;84.60
8067;DHT22;4076;48.076;9.118;2023-03-12T18:13:54;7.80;85.30
8067;DHT22;4076;48.076;9.118;2023-03-12T18:16:19;7.70;87.20
8067;DHT22;4076;48.076;9.118;2023-03-12T18:18:45;7.60;88.50
8067;DHT22;4076;48.076;9.118;2023-03-12T18:21:10;7.50;87.90
8067;DHT22;4076;48.076;9.118;2023-03-12T18:23:36;7.40;90.20
8067;DHT22;4076;48.076;9.118;2023-03-12T18:26:03;7.30;90.80